Time;durP1;ratioP1;P1;durP2;ratioP2;P2;SDS_P1;SDS_P2;PMS_P1;PMS_P2;Temp;Humidity;BMP_temperature;BMP_pressure;BME280_temperature;BME280_humidity;BME280_pressure;Samples;Min_cycle;Max_cycle;Signal;HPM_P1;HPM_P2
2021/03/19 00:01:44;;;;;;;2.87;1.30;;;2.20;29.00;;;;;;5160692;27;20542;-63
2021/03/19 00:04:10;;;;;;;2.73;1.60;;;2.20;99.90;;;;;;5160798;27;20511;-64
2021/03/19 00:06:36;;;;;;;1.95;1.42;;;2.20;1.00;;;;;;5161606;27;20267;-64
2021/03/19 00:09:05;;;;;;;2.43;1.60;;;2.10;1.00;;;;;;5161133;27;20217;-64
2021/03/19 00:11:30;;;;;;;2.35;1.45;;;2.10;14.50;;;;;;5142666;27;20177;-65
2021/03/19 00:13:56;;;;;;;2.60;1.53;;;2.20;99.90;;;;;;5158989;27;20287;-65
2021/03/19 00:16:22;;;;;;;3.07;1.60;;;2.20;99.90;;;;;;5160460;27;20174;-63
2021/03/19 00:18:47;;;;;;;1.43;1.20;;;2.20;99.90;;;;;;5161576;27;20205;-66
2021/03/19 00:21:14;;;;;;;2.13;1.30;;;2.10;1.00;;;;;;5160035;27;20178;-65
2021/03/19 00:23:39;;;;;;;3.90;1.40;;;2.10;1.00;;;;;;5161076;27;20272;-64
2021/03/19 00:26:05;;;;;;;2.93;1.50;;;2.00;99.90;;;;;;5159712;27;20277;-64
2021/03/19 00:28:31;;;;;;;1.30;1.20;;;2.00;99.90;;;;;;5160844;27;20185;-64
2021/03/19 00:30:56;;;;;;;2.83;1.67;;;1.90;1.00;;;;;;5160828;27;20675;-64
2021/03/19 00:33:22;;;;;;;4.20;1.80;;;2.00;1.00;;;;;;5160772;27;20431;-64
2021/03/19 00:35:48;;;;;;;1.77;1.37;;;2.00;1.00;;;;;;5160304;27;20272;-64
2021/03/19 00:38:14;;;;;;;1.77;1.35;;;1.90;1.00;;;;;;5160415;27;20206;-64
2021/03/19 00:40:40;;;;;;;2.20;1.30;;;2.00;1.00;;;;;;5159841;27;20230;-64
2021/03/19 00:43:08;;;;;;;1.45;1.35;;;2.00;25.80;;;;;;5159886;27;20261;-64
2021/03/19 00:45:34;;;;;;;2.25;1.63;;;1.90;99.90;;;;;;5159905;27;20230;-64
2021/03/19 00:47:59;;;;;;;3.17;2.03;;;1.90;99.90;;;;;;5160149;27;20264;-64
2021/03/19 00:50:32;;;;;;;3.70;2.50;;;1.80;99.90;;;;;;5160152;27;20178;-64
2021/03/19 00:52:58;;;;;;;3.40;2.85;;;1.90;99.90;;;;;;5160339;27;20182;-64
2021/03/19 00:55:25;;;;;;;3.80;2.17;;;1.80;99.90;;;;;;5159681;27;20273;-64
2021/03/19 00:57:50;;;;;;;6.68;2.60;;;2.00;99.90;;;;;;5158817;27;20277;-64
2021/03/19 01:00:18;;;;;;;3.27;1.50;;;1.90;99.90;;;;;;5159993;27;20202;-64
2021/03/19 01:02:44;;;;;;;2.63;1.50;;;1.80;99.90;;;;;;5158741;27;20213;-64
2021/03/19 01:05:24;;;;;;;4.50;1.87;;;1.80;99.90;;;;;;5159731;27;20191;-64
2021/03/19 01:07:51;;;;;;;1.70;1.58;;;1.90;99.90;;;;;;5159056;27;20608;-64
2021/03/19 01:10:50;;;;;;;5.65;2.17;;;1.90;99.90;;;;;;5159647;27;20178;-67
2021/03/19 01:13:17;;;;;;;1.90;1.50;;;1.80;99.90;;;;;;5159714;27;20170;-64
2021/03/19 01:15:43;;;;;;;4.70;2.35;;;1.70;99.90;;;;;;5160317;27;20174;-64
2021/03/19 01:18:12;;;;;;;3.38;1.75;;;1.70;99.90;;;;;;5160001;27;20282;-64
2021/03/19 01:20:39;;;;;;;5.63;1.80;;;1.70;99.90;;;;;;5160301;27;20180;-64
2021/03/19 01:23:05;;;;;;;2.65;2.08;;;1.70;99.90;;;;;;5160022;27;20192;-64
2021/03/19 01:25:31;;;;;;;4.00;2.15;;;1.70;99.90;;;;;;5159210;27;20217;-65
2021/03/19 01:27:57;;;;;;;4.27;2.20;;;1.70;99.90;;;;;;5159586;27;20238;-64
2021/03/19 01:30:26;;;;;;;9.00;1.87;;;1.70;99.90;;;;;;5159528;27;20434;-64
2021/03/19 01:32:52;;;;;;;2.22;1.70;;;1.60;1.00;;;;;;5159892;27;20224;-64
2021/03/19 01:35:21;;;;;;;4.60;2.33;;;1.60;1.00;;;;;;5159437;27;20537;-64
2021/03/19 01:37:48;;;;;;;2.28;2.10;;;1.60;1.00;;;;;;5160064;27;20459;-64
2021/03/19 01:40:14;;;;;;;2.22;1.70;;;1.50;1.00;;;;;;5159969;27;20268;-64
2021/03/19 01:43:10;;;;;;;5.60;1.88;;;1.50;1.00;;;;;;5159758;27;20174;-64
2021/03/19 01:46:03;;;;;;;2.15;1.05;;;1.50;1.00;;;;;;5150680;27;20189;-64
2021/03/19 01:49:06;;;;;;;1.20;1.10;;;1.50;1.00;;;;;;5159642;27;20173;-64
2021/03/19 01:52:09;;;;;;;3.47;1.90;;;1.60;1.00;;;;;;5159822;27;20191;-64
2021/03/19 01:55:13;;;;;;;5.13;2.05;;;1.60;1.00;;;;;;5158536;27;20232;-64
2021/03/19 01:58:16;;;;;;;1.83;1.73;;;1.70;99.90;;;;;;5159427;27;20198;-64
2021/03/19 02:01:19;;;;;;;4.15;1.60;;;1.60;99.90;;;;;;5159499;27;20252;-64
2021/03/19 02:04:22;;;;;;;2.35;1.73;;;1.60;99.90;;;;;;5158738;27;20226;-64
2021/03/19 02:07:25;;;;;;;2.95;1.75;;;1.60;99.90;;;;;;5158502;27;20270;-65
2021/03/19 02:10:28;;;;;;;4.55;1.27;;;1.60;99.90;;;;;;5158829;27;20185;-63
2021/03/19 02:13:31;;;;;;;2.10;1.65;;;1.50;1.00;;;;;;5159057;27;20233;-64
2021/03/19 02:16:34;;;;;;;2.58;1.75;;;1.50;1.00;;;;;;5157050;27;20272;-65
2021/03/19 02:19:37;;;;;;;2.92;1.70;;;1.50;1.00;;;;;;5160227;27;20197;-66
2021/03/19 02:22:40;;;;;;;2.05;1.40;;;1.50;1.00;;;;;;5159291;27;20201;-65
2021/03/19 02:25:44;;;;;;;4.05;1.75;;;1.40;1.00;;;;;;5159085;27;20256;-66
2021/03/19 02:28:47;;;;;;;3.38;1.80;;;1.40;1.00;;;;;;5159451;27;20196;-66
2021/03/19 02:31:12;;;;;;;2.42;1.90;;;1.40;1.00;;;;;;5159565;27;20219;-66
2021/03/19 02:33:46;;;;;;;2.20;1.60;;;1.40;1.00;;;;;;5159277;27;20176;-65
2021/03/19 02:36:13;;;;;;;3.10;1.67;;;1.40;1.00;;;;;;5158467;27;20203;-66
2021/03/19 02:38:39;;;;;;;2.25;1.63;;;1.40;1.00;;;;;;5159633;27;20262;-65
2021/03/19 02:41:05;;;;;;;2.17;1.60;;;1.40;1.00;;;;;;5159732;27;20174;-65
2021/03/19 02:43:31;;;;;;;1.60;1.20;;;1.30;1.00;;;;;;5159706;27;20272;-65
2021/03/19 02:45:56;;;;;;;1.63;1.17;;;1.40;1.00;;;;;;5159200;27;20270;-65
2021/03/19 02:48:22;;;;;;;1.27;1.17;;;1.40;99.90;;;;;;5159270;27;20423;-65
2021/03/19 02:50:48;;;;;;;1.57;1.43;;;1.40;99.90;;;;;;5159332;27;20177;-64
2021/03/19 02:53:16;;;;;;;1.33;1.05;;;1.30;99.90;;;;;;5158167;27;20621;-66
2021/03/19 02:55:42;;;;;;;3.55;2.03;;;1.30;99.90;;;;;;5158743;27;20688;-65
2021/03/19 02:58:14;;;;;;;4.80;1.97;;;1.20;1.00;;;;;;5158838;27;20201;-65
2021/03/19 03:00:40;;;;;;;3.17;1.55;;;1.30;1.00;;;;;;5158757;27;20321;-65
2021/03/19 03:03:06;;;;;;;3.20;2.10;;;1.30;1.00;;;;;;5158447;27;20567;-65
2021/03/19 03:05:31;;;;;;;4.63;2.50;;;1.30;1.00;;;;;;5158511;27;20422;-66
2021/03/19 03:07:57;;;;;;;5.23;2.67;;;1.30;1.00;;;;;;5158121;27;20484;-64
2021/03/19 03:10:26;;;;;;;4.35;2.30;;;1.40;1.00;;;;;;5157830;27;20170;-64
2021/03/19 03:12:51;;;;;;;2.97;2.03;;;1.40;1.00;;;;;;5157339;27;20600;-64
2021/03/19 03:15:19;;;;;;;3.40;2.60;;;1.30;1.00;;;;;;5157196;27;20201;-65
2021/03/19 03:17:46;;;;;;;2.13;1.90;;;1.20;1.00;;;;;;5157202;27;20205;-67
2021/03/19 03:20:21;;;;;;;2.00;1.80;;;1.20;1.00;;;;;;5157455;27;20174;-63
2021/03/19 03:22:46;;;;;;;3.45;2.60;;;1.20;1.00;;;;;;5156979;27;20279;-63
2021/03/19 03:25:16;;;;;;;3.30;2.37;;;1.10;1.00;;;;;;5156666;27;20174;-63
2021/03/19 03:27:42;;;;;;;3.70;2.50;;;1.20;1.00;;;;;;5160160;27;20177;-63
2021/03/19 03:30:30;;;;;;;2.60;1.90;;;1.10;1.00;;;;;;5161202;27;20268;-65
2021/03/19 03:32:55;;;;;;;4.13;1.70;;;1.00;1.00;;;;;;5160485;27;20190;-67
2021/03/19 03:35:22;;;;;;;4.50;2.03;;;1.00;1.00;;;;;;5161839;27;20174;-68
2021/03/19 03:37:48;;;;;;;5.55;2.25;;;1.00;1.00;;;;;;5161639;27;20463;-65
2021/03/19 03:40:17;;;;;;;3.60;2.10;;;1.00;1.00;;;;;;5161956;27;20255;-64
2021/03/19 03:42:43;;;;;;;2.85;2.28;;;0.90;1.00;;;;;;5162166;27;20431;-65
2021/03/19 03:45:10;;;;;;;1.93;1.60;;;0.90;1.00;;;;;;5162304;27;20247;-64
2021/03/19 03:47:36;;;;;;;2.85;2.08;;;1.00;1.00;;;;;;5162072;27;20628;-64
2021/03/19 03:50:12;;;;;;;4.93;2.80;;;1.00;1.00;;;;;;5162036;27;20182;-65
2021/03/19 03:52:37;;;;;;;6.45;3.33;;;1.00;1.00;;;;;;5161632;27;20181;-65
2021/03/19 03:55:05;;;;;;;4.30;2.50;;;1.00;1.00;;;;;;5162140;27;20624;-66
2021/03/19 03:57:30;;;;;;;3.42;2.40;;;1.00;1.00;;;;;;5162136;27;20266;-65
2021/03/19 03:59:56;;;;;;;3.30;2.43;;;1.00;1.00;;;;;;5161702;27;20170;-65
2021/03/19 04:02:25;;;;;;;2.47;2.10;;;1.00;1.00;;;;;;5160762;27;20181;-65
2021/03/19 04:04:51;;;;;;;3.00;2.47;;;1.00;1.00;;;;;;5161996;27;20173;-66
2021/03/19 04:07:17;;;;;;;2.58;2.38;;;1.00;1.00;;;;;;5162481;27;20192;-67
2021/03/19 04:09:43;;;;;;;3.33;2.03;;;1.00;1.00;;;;;;5162230;27;20181;-67
2021/03/19 04:12:13;;;;;;;5.40;2.70;;;0.90;1.00;;;;;;5160285;27;20186;-66
2021/03/19 04:14:39;;;;;;;2.10;2.00;;;0.90;1.00;;;;;;5161485;27;20185;-66
2021/03/19 04:17:11;;;;;;;4.38;2.60;;;0.80;1.00;;;;;;5161530;27;20298;-66
2021/03/19 04:19:37;;;;;;;3.55;2.13;;;0.70;1.00;;;;;;5162069;27;20178;-66
2021/03/19 04:22:04;;;;;;;4.95;2.83;;;0.70;1.00;;;;;;5161595;27;20233;-66
2021/03/19 04:24:30;;;;;;;2.85;2.60;;;0.70;1.00;;;;;;5162483;27;20170;-67
2021/03/19 04:26:56;;;;;;;3.55;2.70;;;0.60;1.00;;;;;;5161561;27;20178;-67
2021/03/19 04:29:22;;;;;;;3.50;3.10;;;0.70;1.00;;;;;;5161888;27;20208;-66
2021/03/19 04:31:48;;;;;;;3.40;3.10;;;0.70;1.00;;;;;;5161501;27;20174;-66
2021/03/19 04:34:13;;;;;;;5.10;3.37;;;0.80;1.00;;;;;;5161386;27;20278;-66
2021/03/19 04:36:48;;;;;;;4.40;3.50;;;0.80;1.00;;;;;;5161755;27;20178;-66
2021/03/19 04:39:28;;;;;;;3.85;3.45;;;0.80;1.00;;;;;;5160457;27;20634;-66
2021/03/19 04:41:56;;;;;;;3.35;2.40;;;0.90;1.00;;;;;;5161544;27;20528;-66
2021/03/19 04:44:29;;;;;;;4.72;3.17;;;0.90;1.00;;;;;;5161833;27;20173;-67
2021/03/19 04:46:54;;;;;;;3.72;3.42;;;1.00;1.00;;;;;;5159919;27;20682;-66
2021/03/19 04:49:20;;;;;;;3.90;3.10;;;1.10;1.00;;;;;;5160408;27;20210;-66
2021/03/19 04:51:46;;;;;;;5.77;2.90;;;1.00;1.00;;;;;;5160618;27;20182;-66
2021/03/19 04:54:12;;;;;;;3.70;2.60;;;0.90;1.00;;;;;;5160422;27;20182;-66
2021/03/19 04:56:38;;;;;;;4.88;3.75;;;0.90;1.00;;;;;;5159724;27;20181;-66
2021/03/19 04:59:05;;;;;;;5.00;3.22;;;0.90;1.00;;;;;;5160133;27;20236;-66
2021/03/19 05:01:31;;;;;;;7.32;4.10;;;0.90;1.00;;;;;;5160072;27;20185;-66
2021/03/19 05:03:57;;;;;;;7.25;3.70;;;0.80;1.00;;;;;;5159546;27;20170;-66
2021/03/19 05:06:22;;;;;;;5.57;3.77;;;0.80;1.00;;;;;;5159584;27;20266;-66
2021/03/19 05:08:48;;;;;;;7.07;5.40;;;0.70;1.30;;;;;;5158928;27;20178;-66
2021/03/19 05:11:16;;;;;;;4.33;3.50;;;0.70;12.40;;;;;;5160192;27;20178;-66
2021/03/19 05:13:42;;;;;;;10.23;5.32;;;0.60;18.20;;;;;;5159587;27;20415;-66
2021/03/19 05:16:09;;;;;;;5.10;4.28;;;0.60;36.10;;;;;;5159974;27;20626;-66
2021/03/19 05:18:34;;;;;;;7.50;3.95;;;0.70;69.10;;;;;;5163131;27;20209;-66
2021/03/19 05:21:00;;;;;;;9.80;5.03;;;0.60;85.30;;;;;;5161591;27;20232;-66
2021/03/19 05:23:52;;;;;;;6.70;4.20;;;0.70;87.40;;;;;;5162159;27;20523;-65
2021/03/19 05:26:18;;;;;;;5.53;3.65;;;0.70;94.00;;;;;;5163299;27;20427;-66
2021/03/19 05:28:43;;;;;;;6.93;5.57;;;0.80;99.90;;;;;;5161351;27;20606;-66
2021/03/19 05:31:10;;;;;;;5.57;3.37;;;0.90;99.90;;;;;;5158818;27;20423;-66
2021/03/19 05:33:50;;;;;;;7.78;4.75;;;1.00;99.90;;;;;;5158180;27;20209;-66
2021/03/19 05:36:18;;;;;;;10.60;4.70;;;1.10;99.90;;;;;;5158023;27;20177;-66
2021/03/19 05:38:44;;;;;;;9.35;4.35;;;1.30;97.50;;;;;;5157194;27;20524;-65
2021/03/19 05:41:12;;;;;;;9.73;4.75;;;1.30;69.90;;;;;;5156169;27;20170;-65
2021/03/19 05:43:42;;;;;;;6.20;4.97;;;1.30;44.70;;;;;;5156792;27;20497;-65
2021/03/19 05:46:09;;;;;;;5.97;4.15;;;1.40;23.60;;;;;;5156097;27;20230;-65
2021/03/19 05:49:00;;;;;;;9.00;5.25;;;1.40;1.90;;;;;;5157024;27;20261;-65
2021/03/19 05:51:50;;;;;;;7.18;4.30;;;1.50;1.00;;;;;;5146616;27;20193;-65
2021/03/19 05:54:21;;;;;;;7.60;4.90;;;1.50;1.00;;;;;;5146125;27;20273;-66
2021/03/19 05:56:52;;;;;;;7.13;4.20;;;1.70;1.00;;;;;;5157210;27;20216;-65
2021/03/19 05:59:18;;;;;;;7.60;4.35;;;2.00;1.00;;;;;;5157359;27;20254;-66
2021/03/19 06:01:43;;;;;;;6.67;5.10;;;2.40;1.00;;;;;;5156497;27;20740;-66
2021/03/19 06:04:19;;;;;;;6.90;4.30;;;2.90;1.00;;;;;;5156576;27;20182;-66
2021/03/19 06:06:54;;;;;;;9.35;5.70;;;3.00;99.90;;;;;;5156115;27;20626;-66
2021/03/19 06:09:29;;;;;;;7.55;3.80;;;2.80;99.90;;;;;;5156581;27;20618;-65
2021/03/19 06:12:07;;;;;;;7.13;4.53;;;2.50;99.90;;;;;;5156501;27;20622;-66
2021/03/19 06:14:54;;;;;;;8.57;5.63;;;2.20;99.90;;;;;;5156611;27;20158;-66
2021/03/19 06:17:37;;;;;;;8.80;5.40;;;2.70;1.00;;;;;;5157615;27;20732;-66
2021/03/19 06:20:10;;;;;;;7.60;4.82;;;3.20;99.90;;;;;;5156774;27;20242;-66
2021/03/19 06:22:41;;;;;;;7.10;5.20;;;3.00;99.90;;;;;;5132501;27;20236;-66
2021/03/19 06:25:21;;;;;;;6.28;4.55;;;2.50;99.90;;;;;;5137317;27;20171;-66
2021/03/19 06:27:46;;;;;;;6.78;6.07;;;2.40;1.00;;;;;;5135483;27;20260;-66
2021/03/19 06:30:34;;;;;;;5.73;4.70;;;2.60;1.00;;;;;;5135311;27;20618;-65
2021/03/19 06:33:11;;;;;;;8.02;5.18;;;2.80;1.00;;;;;;5136287;28;20255;-65
2021/03/19 06:35:37;;;;;;;7.47;6.03;;;2.80;1.00;;;;;;5136841;28;20206;-66
2021/03/19 06:38:24;;;;;;;7.40;5.63;;;2.90;1.00;;;;;;5137098;27;20210;-67
2021/03/19 06:40:49;;;;;;;8.68;5.30;;;2.80;99.90;;;;;;5137144;28;20166;-64
2021/03/19 06:43:29;;;;;;;6.60;5.10;;;2.50;1.00;;;;;;5137426;28;20642;-64
2021/03/19 06:46:19;;;;;;;7.65;5.55;;;2.50;1.00;;;;;;5135940;28;20179;-65
2021/03/19 06:49:04;;;;;;;8.60;5.38;;;2.50;1.00;;;;;;5137694;27;20637;-66
2021/03/19 06:51:37;;;;;;;9.38;5.40;;;2.40;1.00;;;;;;5136805;28;20248;-66
2021/03/19 06:54:05;;;;;;;7.82;5.22;;;2.50;1.00;;;;;;5135792;28;20208;-65
2021/03/19 06:56:31;;;;;;;8.20;5.85;;;2.40;1.00;;;;;;5138058;27;20615;-65
2021/03/19 06:58:58;;;;;;;8.25;5.30;;;2.30;1.00;;;;;;5136732;27;20209;-65
2021/03/19 07:01:23;;;;;;;8.07;4.90;;;2.50;1.00;;;;;;5136521;27;20182;-65
2021/03/19 07:04:05;;;;;;;6.10;5.03;;;2.50;1.00;;;;;;5141074;27;20181;-66
2021/03/19 07:06:50;;;;;;;9.07;5.03;;;2.20;1.00;;;;;;5142243;27;20190;-64
2021/03/19 07:09:32;;;;;;;9.82;5.75;;;2.00;1.00;;;;;;5141801;27;20510;-65
2021/03/19 07:12:19;;;;;;;9.27;4.97;;;2.20;1.00;;;;;;5136763;27;20174;-66
2021/03/19 07:14:54;;;;;;;10.65;5.80;;;2.20;1.00;;;;;;5119538;28;20182;-65
2021/03/19 07:17:46;;;;;;;6.97;5.25;;;2.50;1.00;;;;;;5121435;27;20207;-65
2021/03/19 07:20:30;;;;;;;6.13;5.05;;;2.20;1.00;;;;;;5131887;27;20557;-66
2021/03/19 07:23:09;;;;;;;5.57;3.70;;;2.60;1.00;;;;;;5138864;27;20182;-67
2021/03/19 07:25:59;;;;;;;5.20;2.95;;;2.70;1.00;;;;;;5139426;27;20607;-68
2021/03/19 07:29:03;;;;;;;7.85;5.10;;;2.60;1.00;;;;;;5131660;27;20271;-68
2021/03/19 07:31:50;;;;;;;5.50;4.18;;;2.80;1.00;;;;;;5131169;27;20186;-67
2021/03/19 07:34:52;;;;;;;7.35;4.80;;;2.80;1.00;;;;;;5139276;27;20196;-67
2021/03/19 07:37:37;;;;;;;8.48;5.30;;;2.80;1.00;;;;;;5138205;27;20190;-66
2021/03/19 07:40:42;;;;;;;8.15;4.38;;;3.10;1.00;;;;;;5139485;27;20180;-66
2021/03/19 07:43:26;;;;;;;5.75;4.18;;;3.30;1.00;;;;;;5140369;27;20201;-66
2021/03/19 07:46:24;;;;;;;8.57;4.47;;;3.40;1.00;;;;;;5136692;27;20626;-65
2021/03/19 07:49:10;;;;;;;6.72;4.28;;;3.50;1.00;;;;;;5140202;27;20182;-65
2021/03/19 07:51:56;;;;;;;5.35;3.90;;;3.30;1.00;;;;;;5137627;27;20194;-65
2021/03/19 07:54:38;;;;;;;6.60;5.07;;;3.10;1.00;;;;;;5127540;27;20193;-64
2021/03/19 07:57:10;;;;;;;2.72;2.05;;;3.20;1.00;;;;;;5136492;27;20179;-65
2021/03/19 07:59:45;;;;;;;5.68;4.07;;;3.30;1.00;;;;;;5140851;27;20186;-65
2021/03/19 08:02:46;;;;;;;6.53;4.40;;;3.30;1.00;;;;;;5140116;27;20174;-62
2021/03/19 08:05:24;;;;;;;7.97;4.65;;;3.80;1.00;;;;;;5139298;27;20264;-68
2021/03/19 08:08:04;;;;;;;9.57;4.40;;;4.00;99.90;;;;;;5139023;27;20187;-65
2021/03/19 08:10:54;;;;;;;6.35;4.43;;;4.10;79.40;;;;;;5140438;27;20178;-66
2021/03/19 08:13:41;;;;;;;5.97;4.50;;;3.80;99.90;;;;;;5118049;28;20222;-63
2021/03/19 08:16:28;;;;;;;11.20;4.57;;;4.20;99.90;;;;;;5118842;28;20178;-66
2021/03/19 08:19:28;;;;;;;11.65;4.50;;;4.20;1.00;;;;;;5129993;27;21218;-67
2021/03/19 08:22:12;;;;;;;4.30;3.17;;;4.50;99.90;;;;;;5136840;27;20611;-64
2021/03/19 08:24:43;;;;;;;7.15;4.75;;;4.20;99.90;;;;;;5138532;27;20358;-62
2021/03/19 08:27:19;;;;;;;7.50;3.80;;;4.20;99.90;;;;;;5139377;27;20184;-64
2021/03/19 08:29:59;;;;;;;3.95;3.00;;;4.40;1.00;;;;;;5138701;27;20253;-65
2021/03/19 08:32:52;;;;;;;4.95;3.60;;;4.70;99.90;;;;;;5139387;27;20178;-65
2021/03/19 08:35:27;;;;;;;4.97;3.90;;;4.50;1.00;;;;;;5131107;27;20165;-65
2021/03/19 08:38:24;;;;;;;5.35;4.25;;;4.60;1.00;;;;;;5118524;28;20331;-63
2021/03/19 08:40:59;;;;;;;5.18;4.43;;;4.80;1.00;;;;;;5118336;27;20167;-63
2021/03/19 08:43:33;;;;;;;4.97;3.83;;;5.10;1.00;;;;;;5130772;27;20618;-66
2021/03/19 08:46:22;;;;;;;4.68;3.90;;;5.10;1.00;;;;;;5138395;27;20173;-65
2021/03/19 08:48:58;;;;;;;5.07;3.05;;;4.90;99.90;;;;;;5138593;27;20260;-65
2021/03/19 08:51:32;;;;;;;4.70;3.28;;;5.30;1.00;;;;;;5138923;27;20175;-66
2021/03/19 08:54:12;;;;;;;4.40;3.20;;;4.90;1.00;;;;;;5118345;27;20190;-64
2021/03/19 08:56:43;;;;;;;4.15;3.00;;;4.90;95.40;;;;;;5116924;28;20255;-65
2021/03/19 08:59:09;;;;;;;1.98;1.80;;;4.90;1.00;;;;;;5116925;28;20203;-65
2021/03/19 09:01:52;;;;;;;4.40;3.10;;;4.60;99.90;;;;;;5117272;28;20183;-66
2021/03/19 09:04:38;;;;;;;5.28;2.67;;;4.70;99.90;;;;;;5117501;28;20224;-64
2021/03/19 09:07:22;;;;;;;7.63;2.90;;;4.70;1.00;;;;;;5135742;27;20186;-64
2021/03/19 09:09:49;;;;;;;3.00;2.70;;;5.00;99.90;;;;;;5138178;27;20184;-64
2021/03/19 09:12:19;;;;;;;3.85;2.80;;;4.90;99.90;;;;;;5137593;27;20170;-64
2021/03/19 09:14:50;;;;;;;4.53;3.00;;;5.10;99.90;;;;;;5136965;27;20583;-62
2021/03/19 09:17:51;;;;;;;4.40;2.35;;;5.00;23.70;;;;;;5138284;27;20221;-71
2021/03/19 09:20:29;;;;;;;4.65;2.83;;;5.00;99.90;;;;;;5104696;27;20209;-67
2021/03/19 09:23:12;;;;;;;4.20;2.90;;;5.20;16.30;;;;;;5137704;27;20257;-66
2021/03/19 09:26:19;;;;;;;4.50;2.55;;;5.50;99.90;;;;;;5137549;27;20175;-63
2021/03/19 09:29:17;;;;;;;4.70;2.50;;;5.80;99.90;;;;;;5116532;28;20642;-65
2021/03/19 09:31:52;;;;;;;2.25;1.77;;;5.60;99.90;;;;;;5099287;28;20203;-68
2021/03/19 09:34:22;;;;;;;2.63;1.95;;;5.30;10.20;;;;;;5128246;27;20644;-63
2021/03/19 09:37:10;;;;;;;3.22;1.52;;;5.20;99.90;;;;;;5130516;27;20664;-66
2021/03/19 09:39:57;;;;;;;2.38;1.52;;;5.70;1.00;;;;;;5129957;27;20232;-67
2021/03/19 09:42:23;;;;;;;2.45;2.15;;;5.90;99.90;;;;;;5130049;27;20219;-65
2021/03/19 09:44:59;;;;;;;8.20;1.90;;;5.90;1.00;;;;;;5132485;27;20183;-66
2021/03/19 09:47:42;;;;;;;4.07;2.33;;;5.90;99.90;;;;;;5130373;27;20642;-66
2021/03/19 09:50:08;;;;;;;2.00;1.52;;;6.10;1.00;;;;;;5137093;27;20627;-66
2021/03/19 09:52:38;;;;;;;3.57;1.50;;;5.60;46.50;;;;;;5128868;27;20184;-64
2021/03/19 09:55:21;;;;;;;2.17;1.63;;;5.60;99.90;;;;;;5116139;28;20422;-68
2021/03/19 09:57:47;;;;;;;2.42;2.20;;;5.50;1.00;;;;;;5116310;28;20632;-64
2021/03/19 10:00:21;;;;;;;3.23;2.20;;;5.80;63.50;;;;;;5116945;28;20187;-64
2021/03/19 10:02:50;;;;;;;1.90;1.40;;;6.30;1.00;;;;;;5116200;28;20758;-65
2021/03/19 10:05:25;;;;;;;1.35;1.25;;;6.30;1.00;;;;;;5115662;28;20283;-66
2021/03/19 10:07:59;;;;;;;5.35;1.75;;;5.90;1.00;;;;;;5114998;28;20231;-63
2021/03/19 10:10:27;;;;;;;2.35;1.40;;;5.90;1.00;;;;;;5115954;28;20180;-62
2021/03/19 10:13:07;;;;;;;1.45;1.08;;;6.00;1.00;;;;;;5117933;27;20175;-64
2021/03/19 10:15:33;;;;;;;1.35;1.02;;;5.90;1.00;;;;;;5136693;27;20171;-64
2021/03/19 10:18:03;;;;;;;2.15;1.50;;;6.00;1.00;;;;;;5137291;27;20214;-66
2021/03/19 10:20:36;;;;;;;2.25;1.60;;;5.80;1.00;;;;;;5136578;27;20228;-64
2021/03/19 10:23:23;;;;;;;1.95;1.17;;;5.70;1.00;;;;;;5136656;27;20183;-68
2021/03/19 10:25:51;;;;;;;2.67;1.48;;;5.90;1.00;;;;;;5136014;27;20196;-65
2021/03/19 10:28:17;;;;;;;1.42;0.70;;;6.30;1.00;;;;;;5116012;28;20172;-66
2021/03/19 10:30:52;;;;;;;1.60;1.00;;;6.20;99.90;;;;;;5115874;28;20179;-67
2021/03/19 10:33:39;;;;;;;1.67;1.20;;;6.20;1.00;;;;;;5115141;28;20175;-66
2021/03/19 10:36:12;;;;;;;2.00;0.77;;;5.90;1.00;;;;;;5117369;28;20175;-65
2021/03/19 10:38:51;;;;;;;2.70;1.35;;;5.50;1.00;;;;;;5122534;27;20352;-66
2021/03/19 10:41:41;;;;;;;1.80;0.98;;;5.90;1.00;;;;;;5122690;27;20185;-67
2021/03/19 10:44:34;;;;;;;1.40;0.73;;;6.00;1.00;;;;;;5121645;28;20190;-67
2021/03/19 10:47:09;;;;;;;1.02;0.70;;;6.40;1.00;;;;;;5121713;28;20207;-67
2021/03/19 10:49:52;;;;;;;3.00;1.38;;;6.50;99.90;;;;;;5120586;28;20290;-68
2021/03/19 10:52:30;;;;;;;1.00;0.77;;;6.30;99.90;;;;;;5130253;27;20175;-67
2021/03/19 10:55:00;;;;;;;4.60;1.15;;;6.50;99.90;;;;;;5141956;27;20175;-64
2021/03/19 10:57:34;;;;;;;3.15;2.45;;;6.50;99.90;;;;;;5141606;27;20290;-67
2021/03/19 11:00:00;;;;;;;2.95;1.08;;;6.40;1.00;;;;;;5140012;27;20188;-64
2021/03/19 11:02:28;;;;;;;1.20;0.70;;;6.60;1.00;;;;;;5142216;27;20200;-67
2021/03/19 11:04:59;;;;;;;2.25;1.20;;;7.00;99.90;;;;;;5141870;27;20241;-68
2021/03/19 11:07:25;;;;;;;3.83;1.10;;;7.50;99.90;;;;;;5141607;27;20228;-69
2021/03/19 11:10:07;;;;;;;1.20;0.80;;;7.90;28.10;;;;;;5142629;27;20181;-68
2021/03/19 11:12:34;;;;;;;2.00;1.10;;;6.80;99.90;;;;;;5142002;27;20217;-69
2021/03/19 11:15:23;;;;;;;1.17;0.80;;;6.60;99.90;;;;;;5142168;27;20184;-68
2021/03/19 11:18:27;;;;;;;5.15;2.10;;;6.80;99.90;;;;;;5140771;27;20215;-66
2021/03/19 11:20:57;;;;;;;0.55;0.43;;;7.00;99.90;;;;;;5141847;27;20180;-65
2021/03/19 11:23:34;;;;;;;1.40;0.75;;;7.00;99.90;;;;;;5142195;27;20172;-68
2021/03/19 11:26:01;;;;;;;1.40;0.80;;;6.90;99.90;;;;;;5141929;27;20206;-65
2021/03/19 11:28:42;;;;;;;3.80;0.98;;;7.10;99.90;;;;;;5141357;27;20188;-66
2021/03/19 11:31:21;;;;;;;1.00;0.80;;;6.60;99.90;;;;;;5142224;27;20181;-65
2021/03/19 11:34:01;;;;;;;1.45;0.73;;;6.80;99.90;;;;;;5141584;27;20176;-67
2021/03/19 11:36:46;;;;;;;1.23;0.88;;;7.10;99.90;;;;;;5141024;27;20264;-66
2021/03/19 11:39:22;;;;;;;2.35;1.33;;;7.80;99.90;;;;;;5141315;27;20806;-65
2021/03/19 11:41:47;;;;;;;1.40;0.60;;;7.40;99.90;;;;;;5140829;27;20203;-65
2021/03/19 11:44:15;;;;;;;1.10;0.50;;;6.60;99.90;;;;;;5141979;27;20199;-65
2021/03/19 11:46:41;;;;;;;1.80;0.70;;;6.80;99.90;;;;;;5142263;27;20172;-67
2021/03/19 11:49:07;;;;;;;2.20;0.97;;;6.30;99.90;;;;;;5139690;27;20184;-69
2021/03/19 11:51:39;;;;;;;1.23;0.80;;;6.60;99.90;;;;;;5135189;27;20181;-69
2021/03/19 11:54:09;;;;;;;0.80;0.60;;;6.90;99.90;;;;;;5117008;28;20230;-69
2021/03/19 11:56:38;;;;;;;1.38;0.52;;;6.50;99.90;;;;;;5118563;28;20549;-69
2021/03/19 11:59:05;;;;;;;3.35;0.80;;;6.20;99.90;;;;;;5118682;28;20196;-67
2021/03/19 12:01:31;;;;;;;1.52;0.55;;;6.40;99.90;;;;;;5117528;28;20187;-67
2021/03/19 12:03:58;;;;;;;1.30;1.20;;;6.40;99.90;;;;;;5118127;28;20180;-67
2021/03/19 12:06:31;;;;;;;0.85;0.77;;;6.30;99.90;;;;;;5118791;28;20197;-64
2021/03/19 12:08:57;;;;;;;0.95;0.85;;;6.20;99.90;;;;;;5118884;28;20194;-64
2021/03/19 12:11:30;;;;;;;2.40;1.13;;;6.00;99.90;;;;;;5119420;28;20237;-67
2021/03/19 12:13:57;;;;;;;6.93;1.33;;;6.40;99.90;;;;;;5126740;27;20271;-66
2021/03/19 12:16:24;;;;;;;2.75;0.75;;;7.00;99.90;;;;;;5138530;27;20178;-67
2021/03/19 12:18:58;;;;;;;3.88;1.42;;;6.70;99.90;;;;;;5139985;27;20244;-63
2021/03/19 12:21:24;;;;;;;3.90;1.30;;;6.20;99.90;;;;;;5139896;27;20591;-66
2021/03/19 12:23:50;;;;;;;3.97;2.10;;;6.50;99.90;;;;;;5138373;27;20328;-68
2021/03/19 12:26:17;;;;;;;2.55;1.00;;;6.80;99.90;;;;;;5137331;27;20182;-65
2021/03/19 12:28:43;;;;;;;5.95;1.10;;;6.30;99.90;;;;;;5137983;27;20179;-66
2021/03/19 12:31:09;;;;;;;2.40;1.37;;;5.90;99.90;;;;;;5139413;27;20177;-65
2021/03/19 12:33:36;;;;;;;3.77;1.20;;;6.00;99.90;;;;;;5138932;27;20453;-64
2021/03/19 12:36:03;;;;;;;1.50;0.73;;;5.70;99.90;;;;;;5139487;27;20963;-65
2021/03/19 12:38:29;;;;;;;1.88;1.27;;;5.70;99.90;;;;;;5133975;27;20195;-65
2021/03/19 12:40:58;;;;;;;2.85;2.50;;;5.60;99.90;;;;;;5118891;27;20235;-74
2021/03/19 12:43:33;;;;;;;1.98;0.90;;;6.00;99.90;;;;;;5117521;28;20203;-67
2021/03/19 12:45:59;;;;;;;1.98;1.50;;;6.10;99.90;;;;;;5117434;27;20530;-65
2021/03/19 12:48:25;;;;;;;2.50;1.20;;;6.60;99.90;;;;;;5117779;28;20178;-66
2021/03/19 12:50:54;;;;;;;4.95;1.50;;;6.70;93.10;;;;;;5117922;28;20177;-67
2021/03/19 12:53:22;;;;;;;1.17;1.00;;;6.70;94.20;;;;;;5135155;27;20632;-67
2021/03/19 12:55:51;;;;;;;5.20;1.50;;;7.10;73.90;;;;;;5136574;27;20176;-74
2021/03/19 12:58:20;;;;;;;4.80;1.70;;;7.00;21.00;;;;;;5138225;27;20205;-68
2021/03/19 13:00:46;;;;;;;1.60;0.80;;;6.60;45.40;;;;;;5137511;27;20189;-63
2021/03/19 13:03:12;;;;;;;2.77;1.07;;;6.50;99.90;;;;;;5137911;27;20277;-66
2021/03/19 13:05:41;;;;;;;5.45;2.35;;;6.70;97.30;;;;;;5137472;27;20758;-68
2021/03/19 13:08:06;;;;;;;1.58;1.20;;;6.90;64.70;;;;;;5137310;27;20193;-65
2021/03/19 13:10:34;;;;;;;1.20;1.10;;;6.80;1.00;;;;;;5136577;27;20173;-64
2021/03/19 13:13:03;;;;;;;3.45;1.02;;;6.50;1.00;;;;;;5138148;27;20172;-65
2021/03/19 13:15:31;;;;;;;1.65;1.15;;;6.50;1.00;;;;;;5137993;27;20172;-63
2021/03/19 13:17:57;;;;;;;1.60;1.13;;;6.50;15.70;;;;;;5137754;27;20207;-62
2021/03/19 13:20:24;;;;;;;4.87;2.20;;;6.40;4.80;;;;;;5137182;27;20167;-65
2021/03/19 13:22:54;;;;;;;2.15;1.05;;;6.50;1.00;;;;;;5135628;27;20731;-66
2021/03/19 13:25:41;;;;;;;2.25;1.02;;;6.70;4.20;;;;;;5136367;27;20178;-65
2021/03/19 13:28:17;;;;;;;1.15;0.80;;;6.60;1.00;;;;;;5118887;27;20312;-65
2021/03/19 13:30:45;;;;;;;1.23;1.10;;;6.60;5.70;;;;;;5136436;27;20182;-67
2021/03/19 13:33:13;;;;;;;0.90;0.90;;;6.60;1.00;;;;;;5136279;27;20187;-64
2021/03/19 13:35:48;;;;;;;3.17;1.63;;;6.70;2.10;;;;;;5136623;27;20195;-63
2021/03/19 13:38:14;;;;;;;3.65;1.90;;;5.90;69.10;;;;;;5137465;27;20268;-64
2021/03/19 13:40:42;;;;;;;2.57;1.63;;;5.90;99.90;;;;;;5135617;27;20172;-64